Silver Gate, Montana
Current Conditions -  °F | °C
As of 2:53 PM on Sunday 23 Nov 2014 (Local Time) from KLVM Reporting Station
Clear Clear  
Wind Chill: 29°   Ceiling: Unl
Heat Index: 40°   Visibility: 10mi
Dew Point: 15°   Wind: 24mph
Humidity: 36%   Direction: 260°W
Pressure: 29.91"   Gusts: 37mph
Location:  45.01°N, 109.99°W
Report Text: KLVM 232153Z AUTO 26021G32KT 10SM CLR 04/M09 A2991 RMK AO2 PK WND 26037/2104 SLP148 T00441094
Loading
Personal Weather Stations






























Interactive Weather Map New forecast layout! Learn more

10-Day Weather Forecast

Advertisements
Track Severe Weather on mobile